sensor_id;sensor_type;location;lat;lon;timestamp;temperature;humidity
40287;DHT22;25998;46.604;13.610;2022-10-31T00:00:15;12.50;99.90
40287;DHT22;25998;46.604;13.610;2022-10-31T00:03:26;12.50;99.90
40287;DHT22;25998;46.604;13.610;2022-10-31T00:06:36;12.50;99.90
40287;DHT22;25998;46.604;13.610;2022-10-31T00:09:47;12.40;99.90
40287;DHT22;25998;46.604;13.610;2022-10-31T00:12:58;12.30;99.90
40287;DHT22;25998;46.604;13.610;2022-10-31T00:16:16;12.50;99.90
40287;DHT22;25998;46.604;13.610;2022-10-31T00:19:27;12.40;99.90
40287;DHT22;25998;46.604;13.610;2022-10-31T00:22:38;12.30;99.90
40287;DHT22;25998;46.604;13.610;2022-10-31T00:25:49;12.20;99.90
40287;DHT22;25998;46.604;13.610;2022-10-31T00:29:00;12.20;99.90
40287;DHT22;25998;46.604;13.610;2022-10-31T00:32:11;12.10;99.90
40287;DHT22;25998;46.604;13.610;2022-10-31T00:35:22;12.00;99.90
40287;DHT22;25998;46.604;13.610;2022-10-31T00:38:33;12.10;99.90
40287;DHT22;25998;46.604;13.610;2022-10-31T00:41:44;12.20;99.90
40287;DHT22;25998;46.604;13.610;2022-10-31T00:44:54;12.30;99.90
40287;DHT22;25998;46.604;13.610;2022-10-31T00:48:05;12.30;99.90
40287;DHT22;25998;46.604;13.610;2022-10-31T00:51:16;12.40;99.90
40287;DHT22;25998;46.604;13.610;2022-10-31T00:54:27;12.40;99.90
40287;DHT22;25998;46.604;13.610;2022-10-31T00:57:38;12.40;99.90
40287;DHT22;25998;46.604;13.610;2022-10-31T01:00:49;12.40;99.90
40287;DHT22;25998;46.604;13.610;2022-10-31T01:04:05;12.40;99.90
40287;DHT22;25998;46.604;13.610;2022-10-31T01:07:16;12.50;99.90
40287;DHT22;25998;46.604;13.610;2022-10-31T01:10:26;12.50;99.90
40287;DHT22;25998;46.604;13.610;2022-10-31T01:13:38;12.50;99.90
40287;DHT22;25998;46.604;13.610;2022-10-31T01:16:49;12.30;99.90
40287;DHT22;25998;46.604;13.610;2022-10-31T01:20:00;12.10;99.90
40287;DHT22;25998;46.604;13.610;2022-10-31T01:23:10;12.00;99.90
40287;DHT22;25998;46.604;13.610;2022-10-31T01:26:27;12.00;99.90
40287;DHT22;25998;46.604;13.610;2022-10-31T01:29:38;12.00;99.90
40287;DHT22;25998;46.604;13.610;2022-10-31T01:32:48;11.90;99.90
40287;DHT22;25998;46.604;13.610;2022-10-31T01:35:59;11.80;99.90
40287;DHT22;25998;46.604;13.610;2022-10-31T01:39:13;11.70;99.90
40287;DHT22;25998;46.604;13.610;2022-10-31T01:42:24;11.90;99.90
40287;DHT22;25998;46.604;13.610;2022-10-31T01:45:35;12.00;99.90
40287;DHT22;25998;46.604;13.610;2022-10-31T01:48:46;12.10;99.90
40287;DHT22;25998;46.604;13.610;2022-10-31T01:52:11;12.30;99.90
40287;DHT22;25998;46.604;13.610;2022-10-31T01:55:31;12.40;99.90
40287;DHT22;25998;46.604;13.610;2022-10-31T01:58:45;12.30;99.90
40287;DHT22;25998;46.604;13.610;2022-10-31T02:01:57;12.10;99.90
40287;DHT22;25998;46.604;13.610;2022-10-31T02:05:11;12.20;99.90
40287;DHT22;25998;46.604;13.610;2022-10-31T02:08:30;12.20;99.90
40287;DHT22;25998;46.604;13.610;2022-10-31T02:11:44;12.00;99.90
40287;DHT22;25998;46.604;13.610;2022-10-31T02:14:55;11.80;99.90
40287;DHT22;25998;46.604;13.610;2022-10-31T02:18:07;12.00;99.90
40287;DHT22;25998;46.604;13.610;2022-10-31T02:28:34;11.60;99.90
40287;DHT22;25998;46.604;13.610;2022-10-31T02:43:05;11.90;99.90
40287;DHT22;25998;46.604;13.610;2022-10-31T02:49:34;11.80;99.90
40287;DHT22;25998;46.604;13.610;2022-10-31T02:52:51;12.00;99.90
40287;DHT22;25998;46.604;13.610;2022-10-31T02:56:16;12.10;99.90
40287;DHT22;25998;46.604;13.610;2022-10-31T02:59:28;12.10;99.90
40287;DHT22;25998;46.604;13.610;2022-10-31T03:13:45;11.60;99.90
40287;DHT22;25998;46.604;13.610;2022-10-31T03:16:59;11.60;99.90
40287;DHT22;25998;46.604;13.610;2022-10-31T03:20:12;11.70;99.90
40287;DHT22;25998;46.604;13.610;2022-10-31T03:23:24;11.60;99.90
40287;DHT22;25998;46.604;13.610;2022-10-31T03:26:38;11.50;99.90
40287;DHT22;25998;46.604;13.610;2022-10-31T03:29:51;11.60;99.90
40287;DHT22;25998;46.604;13.610;2022-10-31T03:33:05;11.50;99.90
40287;DHT22;25998;46.604;13.610;2022-10-31T03:36:19;11.60;99.90
40287;DHT22;25998;46.604;13.610;2022-10-31T03:39:31;11.60;99.90
40287;DHT22;25998;46.604;13.610;2022-10-31T03:42:49;11.60;99.90
40287;DHT22;25998;46.604;13.610;2022-10-31T03:46:02;11.60;99.90
40287;DHT22;25998;46.604;13.610;2022-10-31T03:49:14;11.50;99.90
40287;DHT22;25998;46.604;13.610;2022-10-31T03:52:33;11.60;99.90
40287;DHT22;25998;46.604;13.610;2022-10-31T03:56:08;11.60;99.90
40287;DHT22;25998;46.604;13.610;2022-10-31T03:59:27;11.60;99.90
40287;DHT22;25998;46.604;13.610;2022-10-31T04:02:41;11.70;99.90
40287;DHT22;25998;46.604;13.610;2022-10-31T04:05:56;11.60;99.90
40287;DHT22;25998;46.604;13.610;2022-10-31T04:09:09;11.60;99.90
40287;DHT22;25998;46.604;13.610;2022-10-31T04:12:21;11.50;99.90
40287;DHT22;25998;46.604;13.610;2022-10-31T04:15:35;11.60;99.90
40287;DHT22;25998;46.604;13.610;2022-10-31T04:18:47;11.40;99.90
40287;DHT22;25998;46.604;13.610;2022-10-31T04:21:58;11.10;99.90
40287;DHT22;25998;46.604;13.610;2022-10-31T04:25:09;11.10;99.90
40287;DHT22;25998;46.604;13.610;2022-10-31T04:28:19;11.20;99.90
40287;DHT22;25998;46.604;13.610;2022-10-31T04:31:30;11.30;99.90
40287;DHT22;25998;46.604;13.610;2022-10-31T04:34:41;11.20;99.90
40287;DHT22;25998;46.604;13.610;2022-10-31T04:37:52;11.40;99.90
40287;DHT22;25998;46.604;13.610;2022-10-31T04:41:03;11.40;99.90
40287;DHT22;25998;46.604;13.610;2022-10-31T04:44:14;11.50;99.90
40287;DHT22;25998;46.604;13.610;2022-10-31T04:47:25;11.60;99.90
40287;DHT22;25998;46.604;13.610;2022-10-31T04:50:36;11.50;99.90
40287;DHT22;25998;46.604;13.610;2022-10-31T04:53:46;11.50;99.90
40287;DHT22;25998;46.604;13.610;2022-10-31T04:56:57;11.50;99.90
40287;DHT22;25998;46.604;13.610;2022-10-31T05:00:10;11.40;99.90
40287;DHT22;25998;46.604;13.610;2022-10-31T05:03:21;11.50;99.90
40287;DHT22;25998;46.604;13.610;2022-10-31T05:06:32;11.50;99.90
40287;DHT22;25998;46.604;13.610;2022-10-31T05:09:43;11.60;99.90
40287;DHT22;25998;46.604;13.610;2022-10-31T05:12:56;11.70;99.90
40287;DHT22;25998;46.604;13.610;2022-10-31T05:16:07;11.50;99.90
40287;DHT22;25998;46.604;13.610;2022-10-31T05:19:18;11.50;99.90
40287;DHT22;25998;46.604;13.610;2022-10-31T05:22:29;11.50;99.90
40287;DHT22;25998;46.604;13.610;2022-10-31T05:25:40;11.30;99.90
40287;DHT22;25998;46.604;13.610;2022-10-31T05:28:51;11.30;99.90
40287;DHT22;25998;46.604;13.610;2022-10-31T05:32:02;11.10;99.90
40287;DHT22;25998;46.604;13.610;2022-10-31T05:35:18;11.10;99.90
40287;DHT22;25998;46.604;13.610;2022-10-31T05:38:29;11.10;99.90
40287;DHT22;25998;46.604;13.610;2022-10-31T05:41:40;11.10;99.90
40287;DHT22;25998;46.604;13.610;2022-10-31T05:44:51;11.20;99.90
40287;DHT22;25998;46.604;13.610;2022-10-31T05:48:02;11.00;99.90
40287;DHT22;25998;46.604;13.610;2022-10-31T05:51:13;11.10;99.90
40287;DHT22;25998;46.604;13.610;2022-10-31T05:54:24;11.10;99.90
40287;DHT22;25998;46.604;13.610;2022-10-31T05:57:34;11.10;99.90
40287;DHT22;25998;46.604;13.610;2022-10-31T06:00:45;11.10;99.90
40287;DHT22;25998;46.604;13.610;2022-10-31T06:03:56;11.20;99.90
40287;DHT22;25998;46.604;13.610;2022-10-31T06:07:07;11.10;99.90
40287;DHT22;25998;46.604;13.610;2022-10-31T06:10:18;11.00;99.90
40287;DHT22;25998;46.604;13.610;2022-10-31T06:13:31;10.90;99.90
40287;DHT22;25998;46.604;13.610;2022-10-31T06:16:42;11.00;99.90
40287;DHT22;25998;46.604;13.610;2022-10-31T06:19:52;11.10;99.90
40287;DHT22;25998;46.604;13.610;2022-10-31T06:23:04;11.10;99.90
40287;DHT22;25998;46.604;13.610;2022-10-31T06:26:14;11.00;99.90
40287;DHT22;25998;46.604;13.610;2022-10-31T06:29:25;11.10;99.90
40287;DHT22;25998;46.604;13.610;2022-10-31T06:32:36;11.20;99.90
40287;DHT22;25998;46.604;13.610;2022-10-31T06:35:47;11.30;99.90
40287;DHT22;25998;46.604;13.610;2022-10-31T06:38:58;11.30;99.90
40287;DHT22;25998;46.604;13.610;2022-10-31T06:42:08;11.30;99.90
40287;DHT22;25998;46.604;13.610;2022-10-31T06:45:19;11.40;99.90
40287;DHT22;25998;46.604;13.610;2022-10-31T06:48:31;11.50;99.90
40287;DHT22;25998;46.604;13.610;2022-10-31T06:51:42;11.50;99.90
40287;DHT22;25998;46.604;13.610;2022-10-31T06:54:53;11.60;99.90
40287;DHT22;25998;46.604;13.610;2022-10-31T06:58:04;11.50;99.90
40287;DHT22;25998;46.604;13.610;2022-10-31T07:01:14;11.50;99.90
40287;DHT22;25998;46.604;13.610;2022-10-31T07:04:25;11.60;99.90
40287;DHT22;25998;46.604;13.610;2022-10-31T07:07:36;11.60;99.90
40287;DHT22;25998;46.604;13.610;2022-10-31T07:10:52;11.50;99.90
40287;DHT22;25998;46.604;13.610;2022-10-31T07:14:03;11.40;99.90
40287;DHT22;25998;46.604;13.610;2022-10-31T07:17:14;11.40;99.90
40287;DHT22;25998;46.604;13.610;2022-10-31T07:20:26;11.40;99.90
40287;DHT22;25998;46.604;13.610;2022-10-31T07:23:36;11.50;99.90
40287;DHT22;25998;46.604;13.610;2022-10-31T07:26:47;11.40;99.90
40287;DHT22;25998;46.604;13.610;2022-10-31T07:29:59;11.40;99.90
40287;DHT22;25998;46.604;13.610;2022-10-31T07:33:10;11.50;99.90
40287;DHT22;25998;46.604;13.610;2022-10-31T07:36:21;11.50;99.90
40287;DHT22;25998;46.604;13.610;2022-10-31T07:39:32;11.60;99.90
40287;DHT22;25998;46.604;13.610;2022-10-31T07:42:45;11.70;99.90
40287;DHT22;25998;46.604;13.610;2022-10-31T07:45:55;11.70;99.90
40287;DHT22;25998;46.604;13.610;2022-10-31T07:49:06;11.70;99.90
40287;DHT22;25998;46.604;13.610;2022-10-31T07:52:17;11.80;99.90
40287;DHT22;25998;46.604;13.610;2022-10-31T07:55:28;11.90;99.90
40287;DHT22;25998;46.604;13.610;2022-10-31T07:58:39;12.10;99.90
40287;DHT22;25998;46.604;13.610;2022-10-31T08:01:50;12.50;99.90
40287;DHT22;25998;46.604;13.610;2022-10-31T08:05:01;12.80;99.90
40287;DHT22;25998;46.604;13.610;2022-10-31T08:08:15;12.90;99.90
40287;DHT22;25998;46.604;13.610;2022-10-31T08:11:26;13.00;99.90
40287;DHT22;25998;46.604;13.610;2022-10-31T08:14:36;13.10;99.90
40287;DHT22;25998;46.604;13.610;2022-10-31T08:17:47;13.20;99.90
40287;DHT22;25998;46.604;13.610;2022-10-31T08:20:58;13.50;99.90
40287;DHT22;25998;46.604;13.610;2022-10-31T08:24:09;14.00;99.90
40287;DHT22;25998;46.604;13.610;2022-10-31T08:27:20;14.50;99.90
40287;DHT22;25998;46.604;13.610;2022-10-31T08:30:33;15.20;99.90
40287;DHT22;25998;46.604;13.610;2022-10-31T08:33:44;15.70;99.90
40287;DHT22;25998;46.604;13.610;2022-10-31T08:36:54;16.00;99.90
40287;DHT22;25998;46.604;13.610;2022-10-31T08:40:06;16.50;99.90
40287;DHT22;25998;46.604;13.610;2022-10-31T08:43:17;16.90;99.90
40287;DHT22;25998;46.604;13.610;2022-10-31T08:46:29;17.30;99.90
40287;DHT22;25998;46.604;13.610;2022-10-31T08:49:40;17.70;99.90
40287;DHT22;25998;46.604;13.610;2022-10-31T08:52:50;18.00;99.80
40287;DHT22;25998;46.604;13.610;2022-10-31T08:56:01;18.10;99.90
40287;DHT22;25998;46.604;13.610;2022-10-31T08:59:12;18.30;99.10
40287;DHT22;25998;46.604;13.610;2022-10-31T09:02:23;18.40;98.50
40287;DHT22;25998;46.604;13.610;2022-10-31T09:05:34;18.40;98.40
40287;DHT22;25998;46.604;13.610;2022-10-31T09:08:45;18.60;97.50
40287;DHT22;25998;46.604;13.610;2022-10-31T09:11:56;18.80;97.50
40287;DHT22;25998;46.604;13.610;2022-10-31T09:15:07;18.80;97.00
40287;DHT22;25998;46.604;13.610;2022-10-31T09:18:21;19.20;97.10
40287;DHT22;25998;46.604;13.610;2022-10-31T09:21:31;19.40;96.60
40287;DHT22;25998;46.604;13.610;2022-10-31T09:24:42;19.80;95.30
40287;DHT22;25998;46.604;13.610;2022-10-31T09:27:57;19.90;95.30
40287;DHT22;25998;46.604;13.610;2022-10-31T09:31:08;20.00;95.50
40287;DHT22;25998;46.604;13.610;2022-10-31T09:34:19;19.90;95.70
40287;DHT22;25998;46.604;13.610;2022-10-31T09:37:30;20.20;95.80
40287;DHT22;25998;46.604;13.610;2022-10-31T09:40:42;20.30;95.20
40287;DHT22;25998;46.604;13.610;2022-10-31T09:44:11;20.10;95.70
40287;DHT22;25998;46.604;13.610;2022-10-31T09:51:13;19.60;96.00
40287;DHT22;25998;46.604;13.610;2022-10-31T09:54:49;19.70;95.20
40287;DHT22;25998;46.604;13.610;2022-10-31T09:58:03;19.80;94.60
40287;DHT22;25998;46.604;13.610;2022-10-31T10:01:33;20.10;94.30
40287;DHT22;25998;46.604;13.610;2022-10-31T10:08:21;20.20;94.20
40287;DHT22;25998;46.604;13.610;2022-10-31T10:11:50;20.40;93.50
40287;DHT22;25998;46.604;13.610;2022-10-31T10:22:37;20.50;93.30
40287;DHT22;25998;46.604;13.610;2022-10-31T10:25:59;21.10;93.10
40287;DHT22;25998;46.604;13.610;2022-10-31T10:29:44;21.20;92.30
40287;DHT22;25998;46.604;13.610;2022-10-31T10:33:20;21.00;92.40
40287;DHT22;25998;46.604;13.610;2022-10-31T10:40:20;20.80;92.60
40287;DHT22;25998;46.604;13.610;2022-10-31T10:43:37;20.90;93.10
40287;DHT22;25998;46.604;13.610;2022-10-31T10:46:53;20.90;92.30
40287;DHT22;25998;46.604;13.610;2022-10-31T10:50:31;21.20;92.40
40287;DHT22;25998;46.604;13.610;2022-10-31T10:53:58;21.50;92.90
40287;DHT22;25998;46.604;13.610;2022-10-31T11:00:44;21.60;91.60
40287;DHT22;25998;46.604;13.610;2022-10-31T11:03:56;21.70;91.10
40287;DHT22;25998;46.604;13.610;2022-10-31T11:07:10;21.30;92.90
40287;DHT22;25998;46.604;13.610;2022-10-31T11:10:21;21.30;92.00
40287;DHT22;25998;46.604;13.610;2022-10-31T11:13:33;21.60;91.80
40287;DHT22;25998;46.604;13.610;2022-10-31T11:16:49;21.80;90.70
40287;DHT22;25998;46.604;13.610;2022-10-31T11:20:04;21.90;91.10
40287;DHT22;25998;46.604;13.610;2022-10-31T11:23:18;22.10;90.80
40287;DHT22;25998;46.604;13.610;2022-10-31T11:26:30;22.20;91.20
40287;DHT22;25998;46.604;13.610;2022-10-31T11:29:40;22.20;90.00
40287;DHT22;25998;46.604;13.610;2022-10-31T11:32:51;21.90;90.00
40287;DHT22;25998;46.604;13.610;2022-10-31T11:36:14;21.80;91.40
40287;DHT22;25998;46.604;13.610;2022-10-31T11:39:26;22.10;90.90
40287;DHT22;25998;46.604;13.610;2022-10-31T11:42:41;22.00;91.20
40287;DHT22;25998;46.604;13.610;2022-10-31T11:45:53;21.80;92.20
40287;DHT22;25998;46.604;13.610;2022-10-31T11:49:05;21.70;91.30
40287;DHT22;25998;46.604;13.610;2022-10-31T11:52:27;21.80;91.20
40287;DHT22;25998;46.604;13.610;2022-10-31T11:55:39;21.60;91.40
40287;DHT22;25998;46.604;13.610;2022-10-31T11:59:05;21.70;91.90
40287;DHT22;25998;46.604;13.610;2022-10-31T12:02:19;21.50;91.10
40287;DHT22;25998;46.604;13.610;2022-10-31T12:05:30;21.50;92.10
40287;DHT22;25998;46.604;13.610;2022-10-31T12:08:43;21.40;91.70
40287;DHT22;25998;46.604;13.610;2022-10-31T12:12:17;21.50;91.50
40287;DHT22;25998;46.604;13.610;2022-10-31T12:15:32;21.50;91.90
40287;DHT22;25998;46.604;13.610;2022-10-31T12:18:56;21.30;93.00
40287;DHT22;25998;46.604;13.610;2022-10-31T12:22:17;21.20;93.30
40287;DHT22;25998;46.604;13.610;2022-10-31T12:45:32;21.20;93.60
40287;DHT22;25998;46.604;13.610;2022-10-31T12:59:32;21.20;93.80
40287;DHT22;25998;46.604;13.610;2022-10-31T13:06:19;21.40;94.90
40287;DHT22;25998;46.604;13.610;2022-10-31T13:09:37;21.50;93.60
40287;DHT22;25998;46.604;13.610;2022-10-31T13:12:53;21.50;94.00
40287;DHT22;25998;46.604;13.610;2022-10-31T13:16:17;21.50;94.80
40287;DHT22;25998;46.604;13.610;2022-10-31T13:19:39;21.40;93.80
40287;DHT22;25998;46.604;13.610;2022-10-31T13:30:04;21.50;94.50
40287;DHT22;25998;46.604;13.610;2022-10-31T13:33:20;21.40;94.30
40287;DHT22;25998;46.604;13.610;2022-10-31T13:36:48;21.30;93.60
40287;DHT22;25998;46.604;13.610;2022-10-31T13:47:31;21.30;93.90
40287;DHT22;25998;46.604;13.610;2022-10-31T13:50:54;21.40;94.10
40287;DHT22;25998;46.604;13.610;2022-10-31T13:54:21;21.30;94.30
40287;DHT22;25998;46.604;13.610;2022-10-31T13:57:42;21.40;94.00
40287;DHT22;25998;46.604;13.610;2022-10-31T14:04:23;20.80;96.50
40287;DHT22;25998;46.604;13.610;2022-10-31T14:07:34;20.70;95.90
40287;DHT22;25998;46.604;13.610;2022-10-31T14:10:54;20.50;97.10
40287;DHT22;25998;46.604;13.610;2022-10-31T14:14:11;20.40;97.00
40287;DHT22;25998;46.604;13.610;2022-10-31T14:17:27;20.20;97.60
40287;DHT22;25998;46.604;13.610;2022-10-31T14:20:43;19.90;98.40
40287;DHT22;25998;46.604;13.610;2022-10-31T14:23:54;19.90;98.30
40287;DHT22;25998;46.604;13.610;2022-10-31T14:30:36;19.90;98.20
40287;DHT22;25998;46.604;13.610;2022-10-31T14:33:47;19.70;98.80
40287;DHT22;25998;46.604;13.610;2022-10-31T14:40:35;19.60;98.90
40287;DHT22;25998;46.604;13.610;2022-10-31T14:50:53;19.30;99.70
40287;DHT22;25998;46.604;13.610;2022-10-31T14:54:07;19.30;99.50
40287;DHT22;25998;46.604;13.610;2022-10-31T14:57:25;19.00;99.90
40287;DHT22;25998;46.604;13.610;2022-10-31T15:00:37;19.10;99.90
40287;DHT22;25998;46.604;13.610;2022-10-31T15:03:48;19.10;99.90
40287;DHT22;25998;46.604;13.610;2022-10-31T15:07:11;19.00;99.90
40287;DHT22;25998;46.604;13.610;2022-10-31T15:10:28;18.70;99.90
40287;DHT22;25998;46.604;13.610;2022-10-31T15:13:55;18.60;99.90
40287;DHT22;25998;46.604;13.610;2022-10-31T15:17:11;18.30;99.90
40287;DHT22;25998;46.604;13.610;2022-10-31T15:20:26;18.40;99.90
40287;DHT22;25998;46.604;13.610;2022-10-31T15:23:38;18.20;99.90
40287;DHT22;25998;46.604;13.610;2022-10-31T15:26:51;18.30;99.90
40287;DHT22;25998;46.604;13.610;2022-10-31T15:30:15;18.30;99.90
40287;DHT22;25998;46.604;13.610;2022-10-31T15:33:32;18.10;99.50
40287;DHT22;25998;46.604;13.610;2022-10-31T15:36:49;18.10;99.70
40287;DHT22;25998;46.604;13.610;2022-10-31T15:40:11;17.80;98.70
40287;DHT22;25998;46.604;13.610;2022-10-31T15:43:25;17.60;98.90
40287;DHT22;25998;46.604;13.610;2022-10-31T15:46:36;17.70;99.20
40287;DHT22;25998;46.604;13.610;2022-10-31T15:49:55;17.50;98.80
40287;DHT22;25998;46.604;13.610;2022-10-31T15:53:18;17.60;99.10
40287;DHT22;25998;46.604;13.610;2022-10-31T15:56:31;17.40;98.50
40287;DHT22;25998;46.604;13.610;2022-10-31T15:59:46;17.10;98.40
40287;DHT22;25998;46.604;13.610;2022-10-31T16:06:22;17.20;98.50
40287;DHT22;25998;46.604;13.610;2022-10-31T16:09:33;17.30;99.10
40287;DHT22;25998;46.604;13.610;2022-10-31T16:12:46;17.10;98.50
40287;DHT22;25998;46.604;13.610;2022-10-31T16:16:02;16.80;98.50
40287;DHT22;25998;46.604;13.610;2022-10-31T16:19:29;16.60;98.90
40287;DHT22;25998;46.604;13.610;2022-10-31T16:22:41;16.50;98.50
40287;DHT22;25998;46.604;13.610;2022-10-31T16:25:57;16.60;97.70
40287;DHT22;25998;46.604;13.610;2022-10-31T16:29:43;16.50;98.30
40287;DHT22;25998;46.604;13.610;2022-10-31T16:32:58;16.50;98.20
40287;DHT22;25998;46.604;13.610;2022-10-31T16:39:41;16.30;98.30
40287;DHT22;25998;46.604;13.610;2022-10-31T16:42:52;16.30;98.10
40287;DHT22;25998;46.604;13.610;2022-10-31T16:46:03;16.20;98.20
40287;DHT22;25998;46.604;13.610;2022-10-31T16:49:14;16.10;98.20
40287;DHT22;25998;46.604;13.610;2022-10-31T16:52:26;16.00;98.40
40287;DHT22;25998;46.604;13.610;2022-10-31T16:55:57;16.00;98.40
40287;DHT22;25998;46.604;13.610;2022-10-31T16:59:10;15.90;98.40
40287;DHT22;25998;46.604;13.610;2022-10-31T17:02:22;15.90;98.40
40287;DHT22;25998;46.604;13.610;2022-10-31T17:05:33;15.80;98.20
40287;DHT22;25998;46.604;13.610;2022-10-31T17:08:44;15.80;98.20
40287;DHT22;25998;46.604;13.610;2022-10-31T17:11:55;15.80;98.40
40287;DHT22;25998;46.604;13.610;2022-10-31T17:15:17;15.80;98.20
40287;DHT22;25998;46.604;13.610;2022-10-31T17:18:29;15.70;98.10
40287;DHT22;25998;46.604;13.610;2022-10-31T17:21:40;15.70;98.20
40287;DHT22;25998;46.604;13.610;2022-10-31T17:24:51;15.60;98.20
40287;DHT22;25998;46.604;13.610;2022-10-31T17:28:02;15.60;98.40
40287;DHT22;25998;46.604;13.610;2022-10-31T17:31:26;15.60;98.00
40287;DHT22;25998;46.604;13.610;2022-10-31T17:34:37;15.50;98.10
40287;DHT22;25998;46.604;13.610;2022-10-31T17:37:49;15.60;98.30
40287;DHT22;25998;46.604;13.610;2022-10-31T17:41:04;15.70;97.90
40287;DHT22;25998;46.604;13.610;2022-10-31T17:44:15;15.70;97.70
40287;DHT22;25998;46.604;13.610;2022-10-31T17:47:26;15.60;98.10
40287;DHT22;25998;46.604;13.610;2022-10-31T17:50:37;15.40;98.50
40287;DHT22;25998;46.604;13.610;2022-10-31T17:53:48;15.30;98.30
40287;DHT22;25998;46.604;13.610;2022-10-31T17:56:58;15.30;98.30
40287;DHT22;25998;46.604;13.610;2022-10-31T18:00:15;15.30;98.20
40287;DHT22;25998;46.604;13.610;2022-10-31T18:03:27;15.30;98.30
40287;DHT22;25998;46.604;13.610;2022-10-31T18:06:38;15.40;98.40
40287;DHT22;25998;46.604;13.610;2022-10-31T18:09:48;15.60;97.90
40287;DHT22;25998;46.604;13.610;2022-10-31T18:12:59;15.60;98.10
40287;DHT22;25998;46.604;13.610;2022-10-31T18:16:15;15.70;97.80
40287;DHT22;25998;46.604;13.610;2022-10-31T18:19:28;15.80;98.10
40287;DHT22;25998;46.604;13.610;2022-10-31T18:22:39;15.80;97.70
40287;DHT22;25998;46.604;13.610;2022-10-31T18:25:50;15.70;98.00
40287;DHT22;25998;46.604;13.610;2022-10-31T18:29:00;15.50;98.30
40287;DHT22;25998;46.604;13.610;2022-10-31T18:32:11;15.30;98.60
40287;DHT22;25998;46.604;13.610;2022-10-31T18:35:22;15.20;98.60
40287;DHT22;25998;46.604;13.610;2022-10-31T18:38:36;15.20;98.60
40287;DHT22;25998;46.604;13.610;2022-10-31T18:41:47;15.20;98.80
40287;DHT22;25998;46.604;13.610;2022-10-31T18:44:58;15.30;98.80
40287;DHT22;25998;46.604;13.610;2022-10-31T18:48:12;15.40;98.60
40287;DHT22;25998;46.604;13.610;2022-10-31T18:51:23;15.30;98.40
40287;DHT22;25998;46.604;13.610;2022-10-31T18:54:34;15.30;98.60
40287;DHT22;25998;46.604;13.610;2022-10-31T18:57:45;15.10;99.10
40287;DHT22;25998;46.604;13.610;2022-10-31T19:00:56;15.20;99.10
40287;DHT22;25998;46.604;13.610;2022-10-31T19:04:09;15.10;99.00
40287;DHT22;25998;46.604;13.610;2022-10-31T19:07:20;15.10;98.90
40287;DHT22;25998;46.604;13.610;2022-10-31T19:10:38;15.00;99.20
40287;DHT22;25998;46.604;13.610;2022-10-31T19:13:49;15.10;98.90
40287;DHT22;25998;46.604;13.610;2022-10-31T19:16:59;14.90;99.10
40287;DHT22;25998;46.604;13.610;2022-10-31T19:20:11;14.70;99.70
40287;DHT22;25998;46.604;13.610;2022-10-31T19:23:22;14.60;99.80
40287;DHT22;25998;46.604;13.610;2022-10-31T19:26:33;14.60;99.70
40287;DHT22;25998;46.604;13.610;2022-10-31T19:29:44;14.70;99.80
40287;DHT22;25998;46.604;13.610;2022-10-31T19:32:55;15.00;99.20
40287;DHT22;25998;46.604;13.610;2022-10-31T19:36:09;15.10;98.90
40287;DHT22;25998;46.604;13.610;2022-10-31T19:39:20;15.00;98.80
40287;DHT22;25998;46.604;13.610;2022-10-31T19:42:31;15.00;98.90
40287;DHT22;25998;46.604;13.610;2022-10-31T19:45:53;15.00;98.70
40287;DHT22;25998;46.604;13.610;2022-10-31T19:49:03;14.90;98.20
40287;DHT22;25998;46.604;13.610;2022-10-31T19:52:14;14.80;99.10
40287;DHT22;25998;46.604;13.610;2022-10-31T19:55:25;14.60;99.20
40287;DHT22;25998;46.604;13.610;2022-10-31T19:58:36;14.50;99.30
40287;DHT22;25998;46.604;13.610;2022-10-31T20:01:47;14.40;99.30
40287;DHT22;25998;46.604;13.610;2022-10-31T20:04:57;14.40;99.50
40287;DHT22;25998;46.604;13.610;2022-10-31T20:08:17;14.40;99.30
40287;DHT22;25998;46.604;13.610;2022-10-31T20:11:29;14.30;99.20
40287;DHT22;25998;46.604;13.610;2022-10-31T20:14:39;14.40;98.90
40287;DHT22;25998;46.604;13.610;2022-10-31T20:17:51;14.40;98.80
40287;DHT22;25998;46.604;13.610;2022-10-31T20:21:05;14.30;99.20
40287;DHT22;25998;46.604;13.610;2022-10-31T20:24:16;14.30;99.10
40287;DHT22;25998;46.604;13.610;2022-10-31T20:27:27;14.20;99.40
40287;DHT22;25998;46.604;13.610;2022-10-31T20:30:38;14.20;99.30
40287;DHT22;25998;46.604;13.610;2022-10-31T20:33:49;14.20;99.00
40287;DHT22;25998;46.604;13.610;2022-10-31T20:36:59;14.20;98.90
40287;DHT22;25998;46.604;13.610;2022-10-31T20:40:10;14.30;98.10
40287;DHT22;25998;46.604;13.610;2022-10-31T20:43:21;14.30;98.60
40287;DHT22;25998;46.604;13.610;2022-10-31T20:46:32;14.20;98.60
40287;DHT22;25998;46.604;13.610;2022-10-31T20:49:43;14.30;98.60
40287;DHT22;25998;46.604;13.610;2022-10-31T20:52:54;14.30;98.60
40287;DHT22;25998;46.604;13.610;2022-10-31T20:56:07;14.20;98.70
40287;DHT22;25998;46.604;13.610;2022-10-31T20:59:18;14.30;98.80
40287;DHT22;25998;46.604;13.610;2022-10-31T21:02:30;14.20;98.30
40287;DHT22;25998;46.604;13.610;2022-10-31T21:05:40;14.20;98.30
40287;DHT22;25998;46.604;13.610;2022-10-31T21:08:51;14.20;98.40
40287;DHT22;25998;46.604;13.610;2022-10-31T21:12:03;14.30;98.30
40287;DHT22;25998;46.604;13.610;2022-10-31T21:15:14;14.20;98.40
40287;DHT22;25998;46.604;13.610;2022-10-31T21:18:25;14.30;98.10
40287;DHT22;25998;46.604;13.610;2022-10-31T21:21:36;14.30;97.80
40287;DHT22;25998;46.604;13.610;2022-10-31T21:24:47;14.10;98.80
40287;DHT22;25998;46.604;13.610;2022-10-31T21:27:57;14.00;98.50
40287;DHT22;25998;46.604;13.610;2022-10-31T21:31:11;13.90;97.90
40287;DHT22;25998;46.604;13.610;2022-10-31T21:34:22;13.90;98.40
40287;DHT22;25998;46.604;13.610;2022-10-31T21:37:32;13.80;98.30
40287;DHT22;25998;46.604;13.610;2022-10-31T21:40:43;13.80;98.30
40287;DHT22;25998;46.604;13.610;2022-10-31T21:43:54;13.70;98.50
40287;DHT22;25998;46.604;13.610;2022-10-31T21:47:05;13.60;97.90
40287;DHT22;25998;46.604;13.610;2022-10-31T21:50:16;13.60;98.10
40287;DHT22;25998;46.604;13.610;2022-10-31T21:53:27;13.60;98.10
40287;DHT22;25998;46.604;13.610;2022-10-31T21:56:58;13.50;98.40
40287;DHT22;25998;46.604;13.610;2022-10-31T22:00:09;13.50;98.40
40287;DHT22;25998;46.604;13.610;2022-10-31T22:03:20;13.60;98.00
40287;DHT22;25998;46.604;13.610;2022-10-31T22:06:31;13.40;98.30
40287;DHT22;25998;46.604;13.610;2022-10-31T22:09:42;13.30;98.60